createdAt,value
2018-09-13T00:00:24.592Z,100927.31
2018-09-13T00:02:55.243Z,100929.20
2018-09-13T00:05:25.943Z,100930.69
2018-09-13T00:07:56.807Z,100928.55
2018-09-13T00:10:27.532Z,100928.03
2018-09-13T00:12:58.437Z,100926.70
2018-09-13T00:15:29.240Z,100922.91
2018-09-13T00:18:00.078Z,100918.36
2018-09-13T00:20:30.925Z,100917.80
2018-09-13T00:23:01.644Z,100914.53
2018-09-13T00:25:32.588Z,100913.30
2018-09-13T00:28:03.331Z,100911.11
2018-09-13T00:30:34.008Z,100905.43
2018-09-13T00:33:04.721Z,100904.06
2018-09-13T00:35:35.481Z,100905.24
2018-09-13T00:38:06.144Z,100914.20
2018-09-13T00:40:36.988Z,100909.88
2018-09-13T00:43:07.811Z,100910.52
2018-09-13T00:45:38.601Z,100916.02
2018-09-13T00:48:09.358Z,100912.41
2018-09-13T00:50:40.162Z,100915.84
2018-09-13T00:53:16.591Z,100914.53
2018-09-13T00:55:47.450Z,100915.09
2018-09-13T00:58:20.004Z,100917.28
2018-09-13T01:00:51.012Z,100909.13
2018-09-13T01:03:21.760Z,100916.41
2018-09-13T01:05:52.678Z,100919.31
2018-09-13T01:08:24.481Z,100919.22
2018-09-13T01:10:55.339Z,100919.22
2018-09-13T01:13:26.003Z,100915.86
2018-09-13T01:15:56.703Z,100912.44
2018-09-13T01:18:27.385Z,100916.51
2018-09-13T01:20:58.196Z,100913.91
2018-09-13T01:23:28.948Z,100916.11
2018-09-13T01:26:00.173Z,100917.28
2018-09-13T01:28:31.736Z,100919.48
2018-09-13T01:31:03.805Z,100914.63
2018-09-13T01:33:34.653Z,100911.42
2018-09-13T01:36:05.408Z,100914.60
2018-09-13T01:38:36.147Z,100901.66
2018-09-13T01:41:07.028Z,100902.59
2018-09-13T01:43:37.702Z,100907.66
2018-09-13T01:46:08.528Z,100900.50
2018-09-13T01:48:39.213Z,100896.86
2018-09-13T01:51:10.732Z,100900.86
2018-09-13T01:53:41.742Z,100902.80
2018-09-13T01:56:12.559Z,100903.36
2018-09-13T01:58:43.628Z,100903.14
2018-09-13T02:01:14.403Z,100888.02
2018-09-13T02:03:46.945Z,100885.16
2018-09-13T02:06:20.422Z,100879.23
2018-09-13T02:11:29.529Z,100873.03
2018-09-13T02:14:00.345Z,100879.02
2018-09-13T02:16:31.244Z,100881.23
2018-09-13T02:19:02.028Z,100880.98
2018-09-13T02:21:35.326Z,100876.78
2018-09-13T02:24:06.140Z,100867.66
2018-09-13T02:26:36.991Z,100864.08
2018-09-13T02:29:08.012Z,100866.17
2018-09-13T02:31:38.826Z,100853.98
2018-09-13T02:34:09.574Z,100848.53
2018-09-13T02:36:40.670Z,100838.00
2018-09-13T02:39:11.827Z,100834.80
2018-09-13T02:41:42.800Z,100839.72
2018-09-13T02:44:13.512Z,100845.09
2018-09-13T02:46:45.497Z,100841.48
2018-09-13T02:49:16.343Z,100843.55
2018-09-13T02:51:47.007Z,100853.36
2018-09-13T02:54:17.843Z,100848.56
2018-09-13T02:56:48.649Z,100847.78
2018-09-13T02:59:19.436Z,100844.91
2018-09-13T03:01:50.282Z,100849.34
2018-09-13T03:04:21.084Z,100843.66
2018-09-13T03:06:51.869Z,100845.62
2018-09-13T03:09:22.686Z,100841.23
2018-09-13T03:11:53.618Z,100843.34
2018-09-13T03:14:24.379Z,100850.11
2018-09-13T03:16:55.124Z,100852.16
2018-09-13T03:19:25.908Z,100847.53
2018-09-13T03:21:56.765Z,100844.11
2018-09-13T03:24:27.668Z,100847.78
2018-09-13T03:26:58.298Z,100849.59
2018-09-13T03:29:29.061Z,100844.44
2018-09-13T03:31:59.808Z,100837.41
2018-09-13T03:34:30.620Z,100844.30
2018-09-13T03:37:01.342Z,100840.08
2018-09-13T03:39:32.083Z,100839.77
2018-09-13T03:42:03.022Z,100833.05
2018-09-13T03:44:33.717Z,100828.97
2018-09-13T03:47:04.676Z,100822.75
2018-09-13T03:49:35.298Z,100819.77
2018-09-13T03:52:06.048Z,100822.19
2018-09-13T03:54:36.913Z,100830.37
2018-09-13T03:57:07.757Z,100837.46
2018-09-13T03:59:38.598Z,100834.81
2018-09-13T04:02:09.479Z,100832.71
2018-09-13T04:04:40.228Z,100831.38
2018-09-13T04:07:11.063Z,100836.47
2018-09-13T04:09:41.810Z,100841.14
2018-09-13T04:12:12.656Z,100842.16
2018-09-13T04:14:43.365Z,100843.98
2018-09-13T04:17:14.125Z,100854.95
2018-09-13T04:19:46.038Z,100854.90
2018-09-13T04:22:17.496Z,100856.59
2018-09-13T04:24:48.172Z,100860.66
2018-09-13T04:27:19.013Z,100858.33
2018-09-13T04:29:49.737Z,100858.38
2018-09-13T04:32:28.048Z,100860.20
2018-09-13T04:34:58.829Z,100856.34
2018-09-13T04:37:29.678Z,100849.17
2018-09-13T04:40:00.403Z,100853.02
2018-09-13T04:42:31.182Z,100846.54
2018-09-13T04:45:01.928Z,100844.20
2018-09-13T04:47:32.780Z,100846.08
2018-09-13T04:50:03.794Z,100845.91
2018-09-13T04:52:34.722Z,100846.69
2018-09-13T04:55:05.566Z,100846.69
2018-09-13T04:57:36.384Z,100843.03
2018-09-13T05:00:07.348Z,100845.15
2018-09-13T05:02:38.412Z,100845.20
2018-09-13T05:05:09.549Z,100841.48
2018-09-13T05:07:40.397Z,100843.27
2018-09-13T05:10:11.247Z,100842.70
2018-09-13T05:12:43.139Z,100845.91
2018-09-13T05:15:14.929Z,100849.47
2018-09-13T05:17:48.876Z,100848.78
2018-09-13T05:20:22.979Z,100855.11
2018-09-13T05:22:54.561Z,100859.55
2018-09-13T05:25:30.646Z,100856.59
2018-09-13T05:28:02.716Z,100859.78
2018-09-13T05:30:34.646Z,100860.80
2018-09-13T05:33:07.112Z,100864.16
2018-09-13T05:35:39.173Z,100863.91
2018-09-13T05:38:10.005Z,100863.25
2018-09-13T05:40:47.376Z,100857.19
2018-09-13T05:43:20.962Z,100865.34
2018-09-13T05:45:56.504Z,100864.39
2018-09-13T05:48:27.253Z,100864.11
2018-09-13T05:50:58.747Z,100859.09
2018-09-13T05:53:29.646Z,100864.68
2018-09-13T05:56:01.711Z,100867.88
2018-09-13T05:58:34.993Z,100862.78
2018-09-13T06:01:06.397Z,100861.25
2018-09-13T06:03:37.470Z,100865.14
2018-09-13T06:06:09.224Z,100867.11
2018-09-13T06:08:41.263Z,100877.80
2018-09-13T06:11:12.037Z,100871.31
2018-09-13T06:13:46.419Z,100878.20
2018-09-13T06:16:17.148Z,100885.23
2018-09-13T06:18:48.090Z,100881.91
2018-09-13T06:21:18.808Z,100883.88
2018-09-13T06:23:49.517Z,100882.03
2018-09-13T06:26:20.345Z,100883.04
2018-09-13T06:28:51.067Z,100879.38
2018-09-13T06:31:22.009Z,100883.44
2018-09-13T06:33:52.806Z,100876.34
2018-09-13T06:36:23.615Z,100876.72
2018-09-13T06:38:54.641Z,100873.14
2018-09-13T06:41:29.034Z,100872.28
2018-09-13T06:44:07.329Z,100876.02
2018-09-13T06:46:38.135Z,100871.58
2018-09-13T06:49:09.161Z,100875.47
2018-09-13T06:54:42.798Z,100873.80
2018-09-13T06:57:13.583Z,100871.69
2018-09-13T06:59:44.416Z,100869.82
2018-09-13T07:02:16.132Z,100874.91
2018-09-13T07:04:49.777Z,100874.59
2018-09-13T07:07:20.994Z,100879.44
2018-09-13T07:09:51.722Z,100877.80
2018-09-13T07:12:24.481Z,100883.58
2018-09-13T07:14:55.237Z,100885.60
2018-09-13T07:17:26.093Z,100885.97
2018-09-13T07:19:57.234Z,100881.16
2018-09-13T07:22:30.930Z,100886.06
2018-09-13T07:25:02.896Z,100885.52
2018-09-13T07:27:34.633Z,100882.02
2018-09-13T07:30:06.013Z,100885.19
2018-09-13T07:32:44.937Z,100881.94
2018-09-13T07:35:15.865Z,100885.52
2018-09-13T07:37:47.434Z,100888.02
2018-09-13T07:40:18.571Z,100889.41
2018-09-13T07:42:49.483Z,100891.81
2018-09-13T07:45:20.261Z,100893.38
2018-09-13T07:47:51.987Z,100896.53
2018-09-13T07:50:23.174Z,100905.08
2018-09-13T07:52:54.183Z,100903.75
2018-09-13T07:55:25.974Z,100898.39
2018-09-13T07:57:56.719Z,100905.16
2018-09-13T08:00:27.534Z,100901.02
2018-09-13T08:02:58.415Z,100897.73
2018-09-13T08:05:29.503Z,100900.88
2018-09-13T08:08:00.228Z,100909.30
2018-09-13T08:10:31.016Z,100910.84
2018-09-13T08:13:01.923Z,100915.91
2018-09-13T08:15:32.678Z,100926.89
2018-09-13T08:18:03.600Z,100936.03
2018-09-13T08:20:34.392Z,100934.06
2018-09-13T08:23:05.544Z,100933.23
2018-09-13T08:25:54.902Z,100935.39
2018-09-13T08:28:50.677Z,100930.58
2018-09-13T08:31:52.311Z,100923.52
2018-09-13T08:37:49.484Z,100921.45
2018-09-13T08:40:36.509Z,100916.70
2018-09-13T08:43:11.820Z,100917.94
2018-09-13T08:45:43.199Z,100912.84
2018-09-13T08:48:14.033Z,100916.27
2018-09-13T08:50:45.140Z,100922.66
2018-09-13T08:53:15.966Z,100925.89
2018-09-13T08:55:47.930Z,100923.21
2018-09-13T08:58:19.619Z,100928.55
2018-09-13T09:00:51.953Z,100933.37
2018-09-13T09:03:24.250Z,100932.50
2018-09-13T09:05:55.759Z,100927.09
2018-09-13T09:08:27.923Z,100925.13
2018-09-13T09:11:02.025Z,100925.62
2018-09-13T09:13:32.913Z,100930.98
2018-09-13T09:16:05.288Z,100932.67
2018-09-13T09:18:36.084Z,100934.67
2018-09-13T09:21:10.268Z,100934.42
2018-09-13T09:23:49.644Z,100936.57
2018-09-13T09:26:22.335Z,100935.13
2018-09-13T09:28:53.243Z,100939.23
2018-09-13T09:31:31.283Z,100935.02
2018-09-13T09:34:02.030Z,100936.23
2018-09-13T09:36:32.880Z,100936.43
2018-09-13T09:39:05.929Z,100932.78
2018-09-13T09:41:36.862Z,100935.84
2018-09-13T09:44:07.969Z,100931.81
2018-09-13T09:46:39.157Z,100939.83
2018-09-13T09:49:09.936Z,100946.94
2018-09-13T09:51:48.741Z,100944.02
2018-09-13T09:54:20.789Z,100939.95
2018-09-13T09:56:51.603Z,100948.32
2018-09-13T09:59:22.408Z,100952.00
2018-09-13T10:01:59.299Z,100946.41
2018-09-13T10:04:30.554Z,100950.52
2018-09-13T10:07:01.470Z,100948.53
2018-09-13T10:09:32.242Z,100944.06
2018-09-13T10:12:03.066Z,100940.67
2018-09-13T10:14:33.855Z,100939.14
2018-09-13T10:17:10.672Z,100939.90
2018-09-13T10:19:46.891Z,100943.23
2018-09-13T10:22:22.659Z,100950.30
2018-09-13T10:24:58.533Z,100947.14
2018-09-13T10:27:34.427Z,100938.79
2018-09-13T10:30:11.354Z,100938.58
2018-09-13T10:32:47.268Z,100935.34
2018-09-13T10:35:23.325Z,100931.63
2018-09-13T10:37:59.303Z,100936.41
2018-09-13T10:40:35.104Z,100933.62
2018-09-13T10:43:10.949Z,100928.18
2018-09-13T10:45:46.906Z,100925.44
2018-09-13T10:48:22.820Z,100924.86
2018-09-13T10:50:58.888Z,100927.85
2018-09-13T10:53:29.765Z,100934.02
2018-09-13T10:56:00.508Z,100934.58
2018-09-13T10:58:31.481Z,100935.18
2018-09-13T11:01:02.285Z,100938.41
2018-09-13T11:03:33.034Z,100931.19
2018-09-13T11:06:03.861Z,100932.19
2018-09-13T11:08:34.715Z,100933.08
2018-09-13T11:11:05.632Z,100931.70
2018-09-13T11:13:43.256Z,100924.95
2018-09-13T11:16:14.097Z,100922.75
2018-09-13T11:18:44.851Z,100924.76
2018-09-13T11:21:15.661Z,100928.78
2018-09-13T11:23:47.805Z,100933.83
2018-09-13T11:26:18.625Z,100935.74
2018-09-13T11:28:49.444Z,100932.31
2018-09-13T11:31:20.245Z,100921.66
2018-09-13T11:33:51.025Z,100919.68
2018-09-13T11:36:21.815Z,100917.09
2018-09-13T11:38:54.657Z,100923.09
2018-09-13T11:41:25.420Z,100918.75
2018-09-13T11:43:58.017Z,100907.56
2018-09-13T11:46:42.402Z,100903.33
2018-09-13T11:49:14.395Z,100903.88
2018-09-13T11:51:46.228Z,100898.56
2018-09-13T11:54:16.945Z,100905.58
2018-09-13T11:56:47.649Z,100897.53
2018-09-13T11:59:18.353Z,100907.33
2018-09-13T12:01:49.124Z,100907.31
2018-09-13T12:04:19.917Z,100901.35
2018-09-13T12:06:50.682Z,100905.83
2018-09-13T12:09:21.650Z,100900.19
2018-09-13T12:11:52.837Z,100892.39
2018-09-13T12:14:23.595Z,100893.81
2018-09-13T12:16:54.401Z,100894.59
2018-09-13T12:19:25.229Z,100890.56
2018-09-13T12:21:56.178Z,100889.52
2018-09-13T12:24:26.890Z,100891.75
2018-09-13T12:26:57.781Z,100898.28
2018-09-13T12:29:28.917Z,100897.98
2018-09-13T12:31:59.856Z,100893.23
2018-09-13T12:34:30.643Z,100892.45
2018-09-13T12:37:01.448Z,100894.63
2018-09-13T12:39:33.265Z,100890.62
2018-09-13T12:42:04.083Z,100897.70
2018-09-13T12:44:35.027Z,100894.23
2018-09-13T12:47:05.877Z,100888.50
2018-09-13T12:49:37.061Z,100889.73
2018-09-13T12:52:07.895Z,100887.95
2018-09-13T12:54:38.667Z,100885.16
2018-09-13T12:57:09.592Z,100882.33
2018-09-13T12:59:40.860Z,100879.84
2018-09-13T13:02:11.700Z,100875.31
2018-09-13T13:04:42.500Z,100872.69
2018-09-13T13:07:13.170Z,100872.69
2018-09-13T13:09:43.935Z,100874.14
2018-09-13T13:12:14.891Z,100874.77
2018-09-13T13:14:45.830Z,100869.21
2018-09-13T13:17:16.590Z,100864.53
2018-09-13T13:19:47.519Z,100861.89
2018-09-13T13:22:18.351Z,100865.13
2018-09-13T13:24:49.080Z,100861.69
2018-09-13T13:27:19.859Z,100861.28
2018-09-13T13:29:50.613Z,100856.50
2018-09-13T13:32:21.388Z,100862.47
2018-09-13T13:34:52.100Z,100857.18
2018-09-13T13:37:22.793Z,100860.36
2018-09-13T13:39:53.564Z,100855.20
2018-09-13T13:42:24.270Z,100860.21
2018-09-13T13:44:54.967Z,100857.54
2018-09-13T13:47:25.686Z,100856.29
2018-09-13T13:49:56.405Z,100854.13
2018-09-13T13:52:27.094Z,100855.13
2018-09-13T13:54:57.960Z,100853.23
2018-09-13T13:57:28.708Z,100855.05
2018-09-13T13:59:59.487Z,100845.05
2018-09-13T14:02:30.231Z,100850.39
2018-09-13T14:05:01.238Z,100845.25
2018-09-13T14:07:32.013Z,100844.02
2018-09-13T14:10:02.781Z,100844.00
2018-09-13T14:12:33.523Z,100841.20
2018-09-13T14:15:04.274Z,100840.44
2018-09-13T14:17:35.080Z,100836.16
2018-09-13T14:20:05.984Z,100830.56
2018-09-13T14:22:36.719Z,100832.76
2018-09-13T14:25:08.280Z,100828.05
2018-09-13T14:27:39.057Z,100829.75
2018-09-13T14:30:10.361Z,100829.06
2018-09-13T14:35:42.617Z,100822.46
2018-09-13T14:40:58.991Z,100816.92
2018-09-13T14:43:29.831Z,100818.25
2018-09-13T14:46:00.877Z,100811.33
2018-09-13T14:48:31.696Z,100813.72
2018-09-13T14:51:03.055Z,100810.96
2018-09-13T14:53:34.352Z,100809.34
2018-09-13T14:56:05.095Z,100805.84
2018-09-13T14:58:35.862Z,100810.25
2018-09-13T15:01:06.830Z,100806.58
2018-09-13T15:03:37.553Z,100806.11
2018-09-13T15:06:09.037Z,100806.45
2018-09-13T15:08:39.796Z,100798.52
2018-09-13T15:11:10.543Z,100805.16
2018-09-13T15:13:41.262Z,100801.47
2018-09-13T15:16:11.976Z,100804.59
2018-09-13T15:18:43.327Z,100799.36
2018-09-13T15:21:14.103Z,100797.47
2018-09-13T15:23:44.893Z,100795.69
2018-09-13T15:26:15.712Z,100793.13
2018-09-13T15:28:46.489Z,100794.34
2018-09-13T15:31:17.328Z,100794.53
2018-09-13T15:33:48.084Z,100787.34
2018-09-13T15:36:18.813Z,100787.38
2018-09-13T15:38:49.510Z,100794.64
2018-09-13T15:41:20.217Z,100784.03
2018-09-13T15:43:51.416Z,100790.49
2018-09-13T15:46:22.164Z,100782.75
2018-09-13T15:48:52.910Z,100780.21
2018-09-13T15:51:23.662Z,100787.65
2018-09-13T15:53:54.406Z,100789.03
2018-09-13T15:56:25.184Z,100795.14
2018-09-13T15:58:56.001Z,100788.66
2018-09-13T16:01:26.734Z,100788.78
2018-09-13T16:03:57.446Z,100789.42
2018-09-13T16:06:28.264Z,100802.23
2018-09-13T16:08:59.014Z,100796.05
2018-09-13T16:11:29.745Z,100788.83
2018-09-13T16:14:00.508Z,100791.08
2018-09-13T16:16:32.820Z,100793.55
2018-09-13T16:19:05.394Z,100796.31
2018-09-13T16:21:36.427Z,100798.19
2018-09-13T16:24:07.377Z,100795.01
2018-09-13T16:26:38.786Z,100794.13
2018-09-13T16:29:09.641Z,100785.02
2018-09-13T16:31:40.453Z,100788.10
2018-09-13T16:34:11.317Z,100779.01
2018-09-13T16:36:47.303Z,100782.10
2018-09-13T16:39:27.037Z,100781.54
2018-09-13T16:42:03.225Z,100779.05
2018-09-13T16:44:40.792Z,100781.30
2018-09-13T16:47:17.277Z,100786.92
2018-09-13T16:49:48.144Z,100792.84
2018-09-13T16:52:19.806Z,100794.34
2018-09-13T16:54:50.725Z,100796.08
2018-09-13T16:57:21.593Z,100797.66
2018-09-13T16:59:52.632Z,100799.98
2018-09-13T17:02:23.655Z,100796.93
2018-09-13T17:04:54.477Z,100794.98
2018-09-13T17:07:25.390Z,100795.67
2018-09-13T17:09:56.120Z,100798.80
2018-09-13T17:12:26.878Z,100798.12
2018-09-13T17:14:57.849Z,100798.22
2018-09-13T17:17:28.756Z,100805.34
2018-09-13T17:19:59.646Z,100801.02
2018-09-13T17:22:30.461Z,100804.84
2018-09-13T17:25:01.196Z,100797.70
2018-09-13T17:27:31.992Z,100802.20
2018-09-13T17:30:02.787Z,100801.73
2018-09-13T17:32:33.647Z,100799.58
2018-09-13T17:35:04.560Z,100807.15
2018-09-13T17:37:35.254Z,100805.21
2018-09-13T17:40:06.076Z,100801.81
2018-09-13T17:42:36.792Z,100797.09
2018-09-13T17:45:07.609Z,100800.39
2018-09-13T17:47:38.417Z,100806.31
2018-09-13T17:50:09.237Z,100805.64
2018-09-13T17:52:39.897Z,100809.81
2018-09-13T17:55:10.619Z,100805.00
2018-09-13T17:57:41.412Z,100804.86
2018-09-13T18:00:13.628Z,100806.97
2018-09-13T18:02:44.407Z,100804.52
2018-09-13T18:05:15.175Z,100812.05
2018-09-13T18:07:45.979Z,100808.92
2018-09-13T18:10:16.706Z,100807.34
2018-09-13T18:12:47.530Z,100811.17
2018-09-13T18:15:18.545Z,100814.13
2018-09-13T18:17:49.627Z,100814.02
2018-09-13T18:20:21.398Z,100803.11
2018-09-13T18:22:52.276Z,100813.56
2018-09-13T18:25:23.039Z,100813.16
2018-09-13T18:27:53.836Z,100816.16
2018-09-13T18:30:24.727Z,100818.27
2018-09-13T18:32:55.487Z,100820.44
2018-09-13T18:35:26.317Z,100823.95
2018-09-13T18:37:57.098Z,100823.06
2018-09-13T18:40:28.024Z,100830.08
2018-09-13T18:42:58.821Z,100831.69
2018-09-13T18:46:00.754Z,100832.42
2018-09-13T18:48:31.564Z,100830.99
2018-09-13T18:51:02.378Z,100830.46
2018-09-13T18:53:33.189Z,100840.80
2018-09-13T18:56:04.018Z,100837.53
2018-09-13T18:58:35.023Z,100846.33
2018-09-13T19:01:05.869Z,100849.80
2018-09-13T19:03:36.576Z,100849.34
2018-09-13T19:06:07.834Z,100845.69
2018-09-13T19:08:38.580Z,100854.20
2018-09-13T19:11:09.906Z,100853.73
2018-09-13T19:13:40.650Z,100853.61
2018-09-13T19:16:11.699Z,100854.89
2018-09-13T19:18:42.432Z,100855.95
2018-09-13T19:21:13.259Z,100857.13
2018-09-13T19:23:43.960Z,100859.97
2018-09-13T19:26:14.721Z,100863.34
2018-09-13T19:28:45.421Z,100859.61
2018-09-13T19:31:16.220Z,100860.31
2018-09-13T19:33:47.213Z,100866.27
2018-09-13T19:36:18.341Z,100872.22
2018-09-13T19:38:49.540Z,100874.16
2018-09-13T19:41:20.442Z,100871.14
2018-09-13T19:43:52.127Z,100877.00
2018-09-13T19:46:22.888Z,100874.86
2018-09-13T19:48:53.644Z,100873.72
2018-09-13T19:51:24.403Z,100875.66
2018-09-13T19:53:56.241Z,100875.90
2018-09-13T19:56:27.018Z,100881.08
2018-09-13T19:58:58.226Z,100876.56
2018-09-13T20:01:28.940Z,100878.67
2018-09-13T20:03:59.847Z,100880.38
2018-09-13T20:06:31.514Z,100888.20
2018-09-13T20:09:09.798Z,100890.22
2018-09-13T20:11:40.662Z,100879.95
2018-09-13T20:14:11.499Z,100886.84
2018-09-13T20:16:42.337Z,100886.67
2018-09-13T20:19:13.176Z,100889.00
2018-09-13T20:21:43.934Z,100892.83
2018-09-13T20:24:14.768Z,100882.92
2018-09-13T20:26:45.710Z,100885.94
2018-09-13T20:29:16.588Z,100888.84
2018-09-13T20:31:47.338Z,100886.94
2018-09-13T20:34:18.287Z,100886.65
2018-09-13T20:36:49.117Z,100881.08
2018-09-13T20:39:19.943Z,100889.11
2018-09-13T20:41:50.837Z,100883.36
2018-09-13T20:44:21.513Z,100885.14
2018-09-13T20:46:52.240Z,100882.12
2018-09-13T20:49:22.994Z,100882.17
2018-09-13T20:51:53.690Z,100879.28
2018-09-13T20:54:24.444Z,100881.23
2018-09-13T20:56:55.508Z,100875.75
2018-09-13T20:59:26.309Z,100873.78
2018-09-13T21:01:57.052Z,100870.58
2018-09-13T21:04:27.827Z,100871.66
2018-09-13T21:06:58.574Z,100873.15
2018-09-13T21:09:29.305Z,100872.37
2018-09-13T21:12:00.065Z,100881.31
2018-09-13T21:14:30.838Z,100879.25
2018-09-13T21:17:01.635Z,100882.12
2018-09-13T21:19:33.097Z,100881.41
2018-09-13T21:22:03.969Z,100887.63
2018-09-13T21:24:34.832Z,100890.27
2018-09-13T21:27:05.576Z,100882.50
2018-09-13T21:29:36.490Z,100885.19
2018-09-13T21:32:07.378Z,100892.84
2018-09-13T21:34:38.140Z,100891.19
2018-09-13T21:37:09.241Z,100889.86
2018-09-13T21:39:40.003Z,100885.56
2018-09-13T21:42:10.765Z,100879.94
2018-09-13T21:44:41.575Z,100880.94
2018-09-13T21:47:12.295Z,100881.56
2018-09-13T21:49:43.081Z,100880.28
2018-09-13T21:52:13.905Z,100887.84
2018-09-13T21:54:44.670Z,100883.88
2018-09-13T21:57:15.503Z,100886.57
2018-09-13T21:59:46.300Z,100891.03
2018-09-13T22:02:17.066Z,100882.55
2018-09-13T22:04:48.043Z,100889.17
2018-09-13T22:07:19.882Z,100890.08
2018-09-13T22:09:50.712Z,100883.59
2018-09-13T22:12:21.626Z,100889.80
2018-09-13T22:14:52.422Z,100894.22
2018-09-13T22:17:27.153Z,100891.20
2018-09-13T22:19:57.825Z,100897.28
2018-09-13T22:22:28.720Z,100896.03
2018-09-13T22:24:59.481Z,100897.41
2018-09-13T22:27:30.277Z,100893.52
2018-09-13T22:30:00.997Z,100898.15
2018-09-13T22:32:31.765Z,100897.36
2018-09-13T22:35:02.489Z,100897.89
2018-09-13T22:37:33.700Z,100896.70
2018-09-13T22:40:04.590Z,100895.58
2018-09-13T22:42:35.482Z,100901.03
2018-09-13T22:45:06.292Z,100901.61
2018-09-13T22:47:37.064Z,100907.96
2018-09-13T22:50:07.938Z,100902.88
2018-09-13T22:52:38.657Z,100907.91
2018-09-13T22:55:09.438Z,100907.12
2018-09-13T22:57:40.250Z,100915.25
2018-09-13T23:00:11.016Z,100909.25
2018-09-13T23:02:46.951Z,100918.69
2018-09-13T23:05:18.940Z,100920.66
2018-09-13T23:07:49.711Z,100916.89
2018-09-13T23:10:20.478Z,100917.54
2018-09-13T23:12:51.289Z,100918.14
2018-09-13T23:15:22.075Z,100925.33
2018-09-13T23:17:52.846Z,100929.89
2018-09-13T23:20:23.763Z,100922.16
2018-09-13T23:22:54.471Z,100924.53
2018-09-13T23:25:25.306Z,100917.13
2018-09-13T23:27:56.017Z,100920.76
2018-09-13T23:30:27.278Z,100924.83
2018-09-13T23:32:58.048Z,100920.61
2018-09-13T23:35:28.896Z,100917.28
2018-09-13T23:37:59.668Z,100915.51
2018-09-13T23:40:30.524Z,100915.23
2018-09-13T23:43:01.262Z,100914.90
2018-09-13T23:45:32.044Z,100917.69
2018-09-13T23:48:02.832Z,100920.89
2018-09-13T23:50:33.594Z,100925.48
2018-09-13T23:53:04.293Z,100920.34
2018-09-13T23:55:35.073Z,100925.67
2018-09-13T23:58:06.052Z,100919.66
